Time,TemperatureF,DewpointF,PressureIn,WindDirection,WindDirectionDegrees,WindSpeedMPH,WindSpeedGustMPH,Humidity,HourlyPrecipIn,Conditions,Clouds,dailyrainin,SoftwareType,DateUTC
2013-05-06 00:00:00,68.5,40.3,29.99,SSE,157,4.3,4.3,35,-99.99,,,-99.99,tws,2013-05-06 07:00:00,
2013-05-06 00:10:00,66.2,45.2,29.99,WNW,292,0.4,1.5,46,-99.99,,,-99.99,tws,2013-05-06 07:10:00,
2013-05-06 00:20:00,63.7,46.2,29.99,North,0,0.9,2.7,52,-99.99,,,-99.99,tws,2013-05-06 07:20:00,
2013-05-06 00:30:00,62.2,47.1,29.98,NW,315,0.9,1.7,57,-99.99,,,-99.99,tws,2013-05-06 07:30:00,
2013-05-06 00:40:00,61.4,47.8,29.98,North,0,0.7,3.2,60,-99.99,,,-99.99,tws,2013-05-06 07:40:00,
2013-05-06 00:50:00,61.1,47.7,29.98,ENE,67,1.1,2.1,61,-99.99,,,-99.99,tws,2013-05-06 07:50:00,
2013-05-06 01:00:00,61.3,48.0,29.97,NW,315,1.1,4.0,61,-99.99,,,-99.99,tws,2013-05-06 08:00:00,
2013-05-06 01:10:00,61.6,48.7,29.97,NW,315,2.6,3.8,62,-99.99,,,-99.99,tws,2013-05-06 08:10:00,
2013-05-06 01:20:00,61.7,49.1,29.96,West,270,2.3,3.7,63,-99.99,,,-99.99,tws,2013-05-06 08:20:00,
2013-05-06 01:30:00,61.7,49.3,29.96,NW,315,2.5,3.2,63,-99.99,,,-99.99,tws,2013-05-06 08:30:00,
2013-05-06 01:40:00,61.7,49.9,29.96,NW,315,1.6,2.9,64,-99.99,,,-99.99,tws,2013-05-06 08:40:00,
2013-05-06 01:50:00,61.7,49.9,29.94,NW,315,1.6,3.6,64,-99.99,,,-99.99,tws,2013-05-06 08:50:00,
2013-05-06 02:00:00,61.6,49.7,29.95,North,0,0.0,0.0,64,-99.99,,,-99.99,tws,2013-05-06 09:00:00,
2013-05-06 02:10:00,61.5,49.5,29.95,ESE,112,0.7,2.2,64,-99.99,,,-99.99,tws,2013-05-06 09:10:00,
2013-05-06 02:20:00,61.4,49.0,29.95,East,90,1.0,3.4,63,-99.99,,,-99.99,tws,2013-05-06 09:20:00,
2013-05-06 02:30:00,61.4,48.4,29.96,ESE,112,0.5,1.7,61,-99.99,,,-99.99,tws,2013-05-06 09:30:00,
2013-05-06 02:40:00,61.5,47.7,29.95,East,90,1.0,2.7,60,-99.99,,,-99.99,tws,2013-05-06 09:40:00,
2013-05-06 02:50:00,61.6,46.8,29.96,SE,135,2.5,3.5,57,-99.99,,,-99.99,tws,2013-05-06 09:50:00,
2013-05-06 03:00:00,61.8,46.0,29.96,ENE,67,3.2,3.9,55,-99.99,,,-99.99,tws,2013-05-06 10:00:00,
2013-05-06 03:10:00,62.0,45.5,29.96,East,90,3.1,4.0,54,-99.99,,,-99.99,tws,2013-05-06 10:10:00,
2013-05-06 03:20:00,62.3,45.0,29.94,East,90,3.5,4.4,52,-99.99,,,-99.99,tws,2013-05-06 10:20:00,
2013-05-06 03:30:00,62.4,44.6,29.95,East,90,3.8,5.4,51,-99.99,,,-99.99,tws,2013-05-06 10:30:00,
2013-05-06 03:40:00,62.5,44.3,29.96,ENE,67,4.6,6.3,50,-99.99,,,-99.99,tws,2013-05-06 10:40:00,
2013-05-06 03:50:00,62.6,44.2,29.95,NNE,22,4.0,6.0,50,-99.99,,,-99.99,tws,2013-05-06 10:50:00,
2013-05-06 04:00:00,62.8,43.6,29.95,East,90,5.9,8.7,49,-99.99,,,-99.99,tws,2013-05-06 11:00:00,
2013-05-06 04:10:00,63.0,43.5,29.95,ENE,67,4.2,5.5,48,-99.99,,,-99.99,tws,2013-05-06 11:10:00,
2013-05-06 04:20:00,62.9,43.3,29.95,East,90,4.5,6.3,48,-99.99,,,-99.99,tws,2013-05-06 11:20:00,
2013-05-06 04:30:00,62.8,43.2,29.96,East,90,4.4,7.1,48,-99.99,,,-99.99,tws,2013-05-06 11:30:00,
2013-05-06 04:40:00,62.7,43.2,29.96,East,90,3.7,5.2,48,-99.99,,,-99.99,tws,2013-05-06 11:40:00,
2013-05-06 04:50:00,62.5,43.0,29.95,SSE,157,3.7,5.7,48,-99.99,,,-99.99,tws,2013-05-06 11:50:00,
2013-05-06 05:00:00,62.4,42.8,29.95,East,90,2.4,3.3,48,-99.99,,,-99.99,tws,2013-05-06 12:00:00,
2013-05-06 05:10:00,62.2,42.7,29.95,SSE,157,5.6,7.9,48,-99.99,,,-99.99,tws,2013-05-06 12:10:00,
2013-05-06 05:20:00,62.2,42.8,29.95,ENE,67,5.1,6.4,48,-99.99,,,-99.99,tws,2013-05-06 12:20:00,
2013-05-06 05:30:00,62.3,42.8,29.96,East,90,7.5,9.4,48,-99.99,,,-99.99,tws,2013-05-06 12:30:00,
2013-05-06 05:40:00,62.6,42.8,29.97,East,90,6.0,7.7,48,-99.99,,,-99.99,tws,2013-05-06 12:40:00,
2013-05-06 05:50:00,62.5,42.6,29.97,ESE,112,6.2,8.0,47,-99.99,,,-99.99,tws,2013-05-06 12:50:00,
2013-05-06 06:00:00,62.4,42.6,29.97,ENE,67,7.0,8.1,47,-99.99,,,-99.99,tws,2013-05-06 13:00:00,
2013-05-06 06:10:00,62.4,42.7,29.98,East,90,6.5,8.2,48,-99.99,,,-99.99,tws,2013-05-06 13:10:00,
2013-05-06 06:20:00,62.4,42.9,29.99,East,90,6.1,7.5,48,-99.99,,,-99.99,tws,2013-05-06 13:20:00,
2013-05-06 06:30:00,62.5,43.2,29.99,East,90,7.3,8.8,49,-99.99,,,-99.99,tws,2013-05-06 13:30:00,
2013-05-06 06:40:00,62.6,43.3,29.99,East,90,8.0,10.3,48,-99.99,,,-99.99,tws,2013-05-06 13:40:00,
2013-05-06 06:50:00,62.8,43.4,29.99,East,90,7.4,9.6,48,-99.99,,,-99.99,tws,2013-05-06 13:50:00,
2013-05-06 07:00:00,63.0,43.7,29.99,ENE,67,7.2,8.6,48,-99.99,,,-99.99,tws,2013-05-06 14:00:00,
2013-05-06 07:10:00,63.4,44.0,30.00,NE,45,6.7,10.2,48,-99.99,,,-99.99,tws,2013-05-06 14:10:00,
2013-05-06 07:20:00,63.8,44.2,30.01,NE,45,6.9,8.2,48,-99.99,,,-99.99,tws,2013-05-06 14:20:00,
2013-05-06 07:30:00,64.2,44.3,30.00,ENE,67,7.3,9.4,47,-99.99,,,-99.99,tws,2013-05-06 14:30:00,
2013-05-06 07:40:00,64.6,44.1,30.01,ESE,112,6.5,8.6,46,-99.99,,,-99.99,tws,2013-05-06 14:40:00,
2013-05-06 07:50:00,65.1,44.3,30.01,NE,45,7.3,9.2,46,-99.99,,,-99.99,tws,2013-05-06 14:50:00,
2013-05-06 08:00:00,65.5,44.7,30.01,East,90,7.7,8.8,46,-99.99,,,-99.99,tws,2013-05-06 15:00:00,
2013-05-06 08:10:00,66.0,44.9,30.01,ENE,67,7.1,8.6,46,-99.99,,,-99.99,tws,2013-05-06 15:10:00,
2013-05-06 08:20:00,66.5,45.1,30.02,NNE,22,7.4,9.5,45,-99.99,,,-99.99,tws,2013-05-06 15:20:00,
2013-05-06 08:30:00,67.1,45.1,30.02,NE,45,7.2,9.4,44,-99.99,,,-99.99,tws,2013-05-06 15:30:00,
2013-05-06 08:40:00,67.8,45.2,30.02,ESE,112,6.9,9.1,43,-99.99,,,-99.99,tws,2013-05-06 15:40:00,
2013-05-06 08:50:00,68.5,45.2,30.03,SE,135,7.8,9.2,42,-99.99,,,-99.99,tws,2013-05-06 15:50:00,
2013-05-06 09:00:00,69.0,45.2,30.03,East,90,6.8,8.8,42,-99.99,,,-99.99,tws,2013-05-06 16:00:00,
2013-05-06 09:10:00,69.7,45.3,30.03,NE,45,7.9,10.2,41,-99.99,,,-99.99,tws,2013-05-06 16:10:00,
2013-05-06 09:20:00,70.6,45.5,30.03,East,90,6.6,9.0,40,-99.99,,,-99.99,tws,2013-05-06 16:20:00,
2013-05-06 09:30:00,71.7,45.5,30.03,ENE,67,6.9,9.3,38,-99.99,,,-99.99,tws,2013-05-06 16:30:00,
2013-05-06 09:40:00,72.6,45.7,30.03,East,90,6.8,9.4,37,-99.99,,,-99.99,tws,2013-05-06 16:40:00,
2013-05-06 09:50:00,73.6,45.8,30.03,NNE,22,6.6,8.7,36,-99.99,,,-99.99,tws,2013-05-06 16:50:00,
2013-05-06 10:00:00,74.5,46.1,30.03,ENE,67,5.5,9.5,36,-99.99,,,-99.99,tws,2013-05-06 17:00:00,
2013-05-06 10:10:00,74.9,46.1,30.04,East,90,5.9,9.8,35,-99.99,,,-99.99,tws,2013-05-06 17:10:00,
2013-05-06 10:20:00,74.8,46.1,30.03,NNE,22,6.3,8.4,35,-99.99,,,-99.99,tws,2013-05-06 17:20:00,
2013-05-06 10:30:00,75.0,46.5,30.03,East,90,5.1,9.8,35,-99.99,,,-99.99,tws,2013-05-06 17:30:00,
2013-05-06 10:40:00,75.6,46.6,30.00,East,90,5.3,7.1,35,-99.99,,,-99.99,tws,2013-05-06 17:40:00,
2013-05-06 10:50:00,76.6,46.7,30.01,SSE,157,7.1,10.5,34,-99.99,,,-99.99,tws,2013-05-06 17:50:00,
2013-05-06 11:00:00,77.1,46.7,30.01,East,90,5.4,9.3,33,-99.99,,,-99.99,tws,2013-05-06 18:00:00,
2013-05-06 11:10:00,77.0,46.6,30.01,ENE,67,5.6,7.5,33,-99.99,,,-99.99,tws,2013-05-06 18:10:00,
2013-05-06 11:20:00,77.0,46.5,30.02,ESE,112,4.8,8.4,33,-99.99,,,-99.99,tws,2013-05-06 18:20:00,
2013-05-06 11:30:00,76.2,45.8,30.02,ENE,67,3.3,6.3,33,-99.99,,,-99.99,tws,2013-05-06 18:30:00,
2013-05-06 11:40:00,75.9,45.9,30.02,North,360,7.3,9.7,33,-99.99,,,-99.99,tws,2013-05-06 18:40:00,
2013-05-06 11:50:00,76.4,46.2,30.01,SSE,157,4.6,6.6,33,-99.99,,,-99.99,tws,2013-05-06 18:50:00,
2013-05-06 12:00:00,77.1,46.1,30.01,East,90,4.7,6.3,32,-99.99,,,-99.99,tws,2013-05-06 19:00:00,
2013-05-06 12:10:00,76.9,45.4,30.00,NE,45,5.0,6.0,32,-99.99,,,-99.99,tws,2013-05-06 19:10:00,
2013-05-06 12:20:00,76.7,45.0,29.99,South,180,4.7,7.1,31,-99.99,,,-99.99,tws,2013-05-06 19:20:00,
2013-05-06 12:30:00,77.0,45.3,29.99,East,90,5.8,9.5,31,-99.99,,,-99.99,tws,2013-05-06 19:30:00,
2013-05-06 12:40:00,78.1,45.3,29.99,SE,135,5.4,9.1,30,-99.99,,,-99.99,tws,2013-05-06 19:40:00,
2013-05-06 12:50:00,78.7,45.1,29.99,SSE,157,4.0,5.8,30,-99.99,,,-99.99,tws,2013-05-06 19:50:00,
2013-05-06 13:00:00,78.6,44.2,29.98,SE,135,5.9,10.6,29,-99.99,,,-99.99,tws,2013-05-06 20:00:00,
2013-05-06 13:10:00,78.7,44.7,29.98,SE,135,3.9,5.6,29,-99.99,,,-99.99,tws,2013-05-06 20:10:00,
2013-05-06 13:20:00,79.3,44.8,29.98,SE,135,4.4,6.5,29,-99.99,,,-99.99,tws,2013-05-06 20:20:00,
2013-05-06 13:30:00,79.4,44.3,29.97,ESE,112,5.2,9.2,28,-99.99,,,-99.99,tws,2013-05-06 20:30:00,
2013-05-06 13:40:00,79.8,44.5,29.97,SE,135,6.9,10.9,28,-99.99,,,-99.99,tws,2013-05-06 20:40:00,
2013-05-06 13:50:00,80.5,45.1,29.98,SE,135,6.3,9.4,28,-99.99,,,-99.99,tws,2013-05-06 20:50:00,
2013-05-06 14:00:00,80.6,45.0,29.97,SW,225,5.9,9.4,28,-99.99,,,-99.99,tws,2013-05-06 21:00:00,
2013-05-06 14:10:00,79.9,43.8,29.96,South,180,6.7,10.1,27,-99.99,,,-99.99,tws,2013-05-06 21:10:00,
2013-05-06 14:20:00,79.6,44.1,29.95,SSE,157,6.9,10.9,28,-99.99,,,-99.99,tws,2013-05-06 21:20:00,
2013-05-06 14:30:00,79.7,44.2,29.96,SE,135,5.4,10.2,28,-99.99,,,-99.99,tws,2013-05-06 21:30:00,
2013-05-06 14:40:00,79.7,43.7,29.96,South,180,5.6,7.5,27,-99.99,,,-99.99,tws,2013-05-06 21:40:00,
2013-05-06 14:50:00,80.4,44.3,29.96,South,180,7.1,9.3,27,-99.99,,,-99.99,tws,2013-05-06 21:50:00,
2013-05-06 15:00:00,81.0,43.6,29.94,ESE,112,6.0,7.7,26,-99.99,,,-99.99,tws,2013-05-06 22:00:00,
2013-05-06 15:10:00,81.1,43.8,29.95,South,180,6.7,8.6,26,-99.99,,,-99.99,tws,2013-05-06 22:10:00,
2013-05-06 15:20:00,80.8,43.1,29.94,NE,45,5.4,8.1,25,-99.99,,,-99.99,tws,2013-05-06 22:20:00,
2013-05-06 15:30:00,80.9,44.2,29.94,ESE,112,4.8,6.6,26,-99.99,,,-99.99,tws,2013-05-06 22:30:00,
2013-05-06 15:40:00,81.0,44.2,29.94,SE,135,3.6,5.8,26,-99.99,,,-99.99,tws,2013-05-06 22:40:00,
2013-05-06 15:50:00,81.2,44.2,29.92,SSE,157,6.2,8.7,26,-99.99,,,-99.99,tws,2013-05-06 22:50:00,
2013-05-06 16:00:00,81.9,43.5,29.91,SE,135,6.2,10.3,25,-99.99,,,-99.99,tws,2013-05-06 23:00:00,
2013-05-06 16:10:00,82.0,43.3,29.92,SSE,157,5.9,8.3,25,-99.99,,,-99.99,tws,2013-05-06 23:10:00,
2013-05-06 16:20:00,82.3,43.6,29.91,SE,135,6.7,9.5,25,-99.99,,,-99.99,tws,2013-05-06 23:20:00,
2013-05-06 16:30:00,83.0,43.5,29.91,SSE,157,5.9,9.2,24,-99.99,,,-99.99,tws,2013-05-06 23:30:00,
2013-05-06 16:40:00,83.3,42.7,29.92,North,360,6.7,9.1,23,-99.99,,,-99.99,tws,2013-05-06 23:40:00,
2013-05-06 16:50:00,82.9,41.8,29.92,SE,135,7.2,8.5,23,-99.99,,,-99.99,tws,2013-05-06 23:50:00,
2013-05-06 17:00:00,81.9,40.8,29.92,SE,135,7.3,10.1,22,-99.99,,,-99.99,tws,2013-05-07 00:00:00,
2013-05-06 17:10:00,80.9,40.8,29.92,ESE,112,5.4,7.6,23,-99.99,,,-99.99,tws,2013-05-07 00:10:00,
2013-05-06 17:20:00,80.1,40.5,29.91,SE,135,4.1,5.4,23,-99.99,,,-99.99,tws,2013-05-07 00:20:00,
2013-05-06 17:30:00,79.6,40.0,29.91,South,180,5.2,6.2,23,-99.99,,,-99.99,tws,2013-05-07 00:30:00,
2013-05-06 17:40:00,79.4,39.9,29.91,SE,135,4.1,6.7,24,-99.99,,,-99.99,tws,2013-05-07 00:40:00,
2013-05-06 17:50:00,79.5,40.6,29.91,SE,135,5.1,6.4,24,-99.99,,,-99.99,tws,2013-05-07 00:50:00,
2013-05-06 18:00:00,79.6,40.2,29.92,ESE,112,4.4,6.4,24,-99.99,,,-99.99,tws,2013-05-07 01:00:00,
2013-05-06 18:10:00,79.6,40.2,29.92,ESE,112,4.3,5.5,24,-99.99,,,-99.99,tws,2013-05-07 01:10:00,
2013-05-06 18:20:00,79.6,39.7,29.92,SW,225,6.8,8.9,23,-99.99,,,-99.99,tws,2013-05-07 01:20:00,
2013-05-06 18:30:00,79.5,39.3,29.91,SSE,157,8.2,12.0,23,-99.99,,,-99.99,tws,2013-05-07 01:30:00,
2013-05-06 18:40:00,79.4,39.2,29.92,SW,225,7.0,9.1,23,-99.99,,,-99.99,tws,2013-05-07 01:40:00,
2013-05-06 18:50:00,79.0,38.9,29.91,SSE,157,7.9,9.8,23,-99.99,,,-99.99,tws,2013-05-07 01:50:00,
2013-05-06 19:00:00,78.2,38.4,29.92,SW,225,10.0,14.5,23,-99.99,,,-99.99,tws,2013-05-07 02:00:00,
2013-05-06 19:10:00,77.4,38.2,29.93,SE,135,9.9,11.9,23,-99.99,,,-99.99,tws,2013-05-07 02:10:00,
2013-05-06 19:20:00,76.8,38.1,29.94,South,180,8.5,9.8,24,-99.99,,,-99.99,tws,2013-05-07 02:20:00,
2013-05-06 19:30:00,76.2,38.4,29.94,SW,225,6.8,9.6,25,-99.99,,,-99.99,tws,2013-05-07 02:30:00,
2013-05-06 19:40:00,75.6,38.0,29.95,SSE,157,6.3,9.2,25,-99.99,,,-99.99,tws,2013-05-07 02:40:00,
2013-05-06 19:50:00,75.0,37.8,29.94,South,180,7.7,9.8,25,-99.99,,,-99.99,tws,2013-05-07 02:50:00,
2013-05-06 20:00:00,74.5,37.6,29.95,SSE,157,6.9,10.7,25,-99.99,,,-99.99,tws,2013-05-07 03:00:00,
2013-05-06 20:10:00,74.1,37.5,29.96,South,180,7.0,8.8,26,-99.99,,,-99.99,tws,2013-05-07 03:10:00,
2013-05-06 20:20:00,73.7,37.3,29.96,South,180,6.4,7.7,26,-99.99,,,-99.99,tws,2013-05-07 03:20:00,
2013-05-06 20:30:00,73.3,37.2,29.96,South,180,7.8,10.1,26,-99.99,,,-99.99,tws,2013-05-07 03:30:00,
2013-05-06 20:40:00,73.0,36.8,29.96,SSW,202,5.8,7.3,26,-99.99,,,-99.99,tws,2013-05-07 03:40:00,
2013-05-06 20:50:00,72.5,37.0,29.96,South,180,6.0,8.1,27,-99.99,,,-99.99,tws,2013-05-07 03:50:00,
2013-05-06 21:00:00,72.1,37.2,29.97,SSE,157,5.5,7.3,27,-99.99,,,-99.99,tws,2013-05-07 04:00:00,
2013-05-06 21:30:00,70.6,35.4,30.00,South,180,3.8,5.2,27,-99.99,,,-99.99,tws,2013-05-07 04:30:00,
2013-05-06 21:40:00,70.3,35.1,30.00,South,180,4.3,5.7,27,-99.99,,,-99.99,tws,2013-05-07 04:40:00,
2013-05-06 21:50:00,70.0,35.2,30.00,South,180,3.3,4.6,27,-99.99,,,-99.99,tws,2013-05-07 04:50:00,
2013-05-06 22:00:00,69.6,34.9,30.01,SSW,202,3.3,4.2,27,-99.99,,,-99.99,tws,2013-05-07 05:00:00,
2013-05-06 22:10:00,69.2,34.8,30.00,SW,225,2.8,3.6,27,-99.99,,,-99.99,tws,2013-05-07 05:10:00,
2013-05-06 22:20:00,68.7,34.7,30.00,South,180,3.6,4.2,28,-99.99,,,-99.99,tws,2013-05-07 05:20:00,
2013-05-06 22:30:00,68.3,34.9,30.01,SW,225,4.0,5.8,28,-99.99,,,-99.99,tws,2013-05-07 05:30:00,
2013-05-06 22:40:00,67.9,34.9,30.01,SW,225,3.4,4.5,29,-99.99,,,-99.99,tws,2013-05-07 05:40:00,
2013-05-06 22:50:00,67.5,34.8,30.00,South,180,2.7,3.6,29,-99.99,,,-99.99,tws,2013-05-07 05:50:00,
2013-05-06 23:00:00,67.1,34.4,30.01,SW,225,1.1,2.3,29,-99.99,,,-99.99,tws,2013-05-07 06:00:00,
2013-05-06 23:10:00,66.6,34.3,30.00,SW,225,1.7,2.6,29,-99.99,,,-99.99,tws,2013-05-07 06:10:00,
2013-05-06 23:20:00,66.1,34.3,30.01,SW,225,2.0,3.0,30,-99.99,,,-99.99,tws,2013-05-07 06:20:00,
2013-05-06 23:30:00,65.6,33.9,30.01,SW,225,2.9,3.8,30,-99.99,,,-99.99,tws,2013-05-07 06:30:00,
2013-05-06 23:40:00,65.2,33.8,30.01,SSE,157,2.4,3.7,30,-99.99,,,-99.99,tws,2013-05-07 06:40:00,
2013-05-06 23:50:00,64.9,34.6,30.01,North,0,0.1,1.0,32,-99.99,,,-99.99,tws,2013-05-07 06:50:00,